Time;durP1;ratioP1;P1;durP2;ratioP2;P2;SDS_P1;SDS_P2;PMS_P1;PMS_P2;Temp;Humidity;BMP_temperature;BMP_pressure;BME280_temperature;BME280_humidity;BME280_pressure;Samples;Min_cycle;Max_cycle;Signal;HPM_P1;HPM_P2
2021/01/16 00:01:05;;;;;;;30.20;16.65;;;-2.50;99.90;;;;;;4736204;30;20435;-77
2021/01/16 00:03:36;;;;;;;29.75;16.65;;;-2.50;99.90;;;;;;4736395;30;20134;-77
2021/01/16 00:06:03;;;;;;;27.15;15.90;;;-2.50;99.90;;;;;;4764153;30;20055;-77
2021/01/16 00:08:31;;;;;;;31.45;17.00;;;-2.50;99.90;;;;;;4767433;30;20112;-78
2021/01/16 00:11:02;;;;;;;24.70;13.23;;;-2.50;99.90;;;;;;4753866;30;20071;-77
2021/01/16 00:13:34;;;;;;;30.85;16.33;;;-2.50;99.90;;;;;;4760609;30;20439;-76
2021/01/16 00:16:06;;;;;;;27.67;16.05;;;-2.40;99.90;;;;;;4731066;30;20052;-77
2021/01/16 00:18:32;;;;;;;30.52;16.95;;;-2.40;99.90;;;;;;4749318;30;20078;-77
2021/01/16 00:21:04;;;;;;;32.35;17.52;;;-2.40;99.90;;;;;;4767697;30;20054;-78
2021/01/16 00:23:30;;;;;;;26.08;15.52;;;-2.40;99.90;;;;;;4768810;30;20100;-77
2021/01/16 00:26:01;;;;;;;27.50;16.63;;;-2.40;99.90;;;;;;4787535;30;20070;-78
2021/01/16 00:28:31;;;;;;;30.40;16.90;;;-2.40;99.90;;;;;;4761630;30;20520;-78
2021/01/16 00:31:03;;;;;;;25.83;15.77;;;-2.40;99.90;;;;;;4755750;30;20145;-77
2021/01/16 00:33:35;;;;;;;29.92;16.48;;;-2.40;99.90;;;;;;4787376;30;20122;-77
2021/01/16 00:36:07;;;;;;;29.95;16.90;;;-2.50;99.90;;;;;;4771063;30;20051;-77
2021/01/16 00:38:41;;;;;;;32.45;17.58;;;-2.50;99.90;;;;;;4755599;30;20087;-77
2021/01/16 00:41:12;;;;;;;29.70;16.17;;;-2.40;99.90;;;;;;4771265;30;20500;-77
2021/01/16 00:43:44;;;;;;;29.30;15.95;;;-2.40;99.90;;;;;;4771124;30;20521;-77
2021/01/16 00:46:15;;;;;;;28.83;16.45;;;-2.40;99.90;;;;;;4771053;30;20093;-78
2021/01/16 00:48:46;;;;;;;30.63;14.98;;;-2.40;99.90;;;;;;4770922;30;20048;-77
2021/01/16 00:51:18;;;;;;;30.05;16.48;;;-2.40;99.90;;;;;;4770886;30;20499;-77
2021/01/16 00:53:44;;;;;;;25.50;15.23;;;-2.50;99.90;;;;;;4770913;30;20079;-78
2021/01/16 00:56:15;;;;;;;27.77;15.30;;;-2.50;99.90;;;;;;4770817;30;20054;-77
2021/01/16 00:59:01;;;;;;;28.98;16.30;;;-2.50;99.90;;;;;;4770726;30;20056;-78
2021/01/16 01:01:47;;;;;;;27.48;15.48;;;-2.50;99.90;;;;;;4773015;30;20062;-77
2021/01/16 01:04:19;;;;;;;25.90;14.70;;;-2.40;99.90;;;;;;4770700;30;20050;-77
2021/01/16 01:06:50;;;;;;;26.10;14.85;;;-2.40;99.90;;;;;;4770760;30;20132;-77
2021/01/16 01:09:17;;;;;;;27.13;15.85;;;-2.40;99.90;;;;;;4770723;30;20154;-77
2021/01/16 01:11:49;;;;;;;29.25;15.93;;;-2.40;99.90;;;;;;4770932;30;20129;-78
2021/01/16 01:14:21;;;;;;;26.65;14.77;;;-2.50;99.90;;;;;;4767051;30;20087;-77
2021/01/16 01:16:47;;;;;;;28.35;16.45;;;-2.50;99.90;;;;;;4738156;30;20109;-77
2021/01/16 01:19:13;;;;;;;28.38;15.23;;;-2.40;99.90;;;;;;4737900;30;20487;-78
2021/01/16 01:21:44;;;;;;;24.80;14.60;;;-2.40;99.90;;;;;;4738535;30;20143;-78
2021/01/16 01:24:16;;;;;;;26.25;14.77;;;-2.40;99.90;;;;;;4738885;30;20138;-77
2021/01/16 01:26:47;;;;;;;28.85;15.27;;;-2.40;99.90;;;;;;4752898;30;20047;-78
2021/01/16 01:29:18;;;;;;;27.63;15.07;;;-2.40;99.90;;;;;;4753087;30;20052;-77
2021/01/16 01:31:50;;;;;;;25.45;14.68;;;-2.40;99.90;;;;;;4738841;30;20144;-77
2021/01/16 01:34:16;;;;;;;26.83;14.85;;;-2.40;99.90;;;;;;4737746;30;20105;-78
2021/01/16 01:36:47;;;;;;;27.83;14.80;;;-2.40;99.90;;;;;;4752546;30;20054;-77
2021/01/16 01:39:19;;;;;;;25.15;14.57;;;-2.40;99.90;;;;;;4738497;30;20082;-77
2021/01/16 01:41:50;;;;;;;25.65;14.23;;;-2.40;99.90;;;;;;4738392;30;20040;-78
2021/01/16 01:44:21;;;;;;;24.02;13.68;;;-2.40;99.90;;;;;;4752854;30;20050;-77
2021/01/16 01:46:52;;;;;;;23.25;14.15;;;-2.40;99.90;;;;;;4738738;30;20062;-78
2021/01/16 01:49:19;;;;;;;27.42;14.77;;;-2.40;99.90;;;;;;4737756;30;20051;-78
2021/01/16 01:51:46;;;;;;;27.88;15.05;;;-2.40;99.90;;;;;;4737953;30;20113;-77
2021/01/16 01:54:17;;;;;;;28.02;16.50;;;-2.40;99.90;;;;;;4737743;30;20073;-77
2021/01/16 01:56:50;;;;;;;26.25;15.00;;;-2.40;99.90;;;;;;4738096;30;20143;-77
2021/01/16 01:59:17;;;;;;;24.60;14.02;;;-2.30;99.90;;;;;;4751903;30;20043;-78
2021/01/16 02:01:52;;;;;;;26.58;13.82;;;-2.30;99.90;;;;;;4737122;30;20051;-77
2021/01/16 02:04:24;;;;;;;27.65;15.25;;;-2.30;99.90;;;;;;4737685;30;20062;-77
2021/01/16 02:06:57;;;;;;;25.20;14.77;;;-2.30;99.90;;;;;;4737486;30;20044;-77
2021/01/16 02:09:29;;;;;;;26.40;15.20;;;-2.30;99.90;;;;;;4737496;30;20048;-78
2021/01/16 02:12:00;;;;;;;23.88;13.48;;;-2.30;99.90;;;;;;4737926;30;20419;-77
2021/01/16 02:14:34;;;;;;;28.73;15.00;;;-2.30;99.90;;;;;;4732815;30;20048;-77
2021/01/16 02:17:06;;;;;;;;;;;-2.30;99.90;;;;;;4734486;30;20509;-78
2021/01/16 02:20:09;;;;;;;25.92;14.02;;;-2.30;99.90;;;;;;4749838;30;19930;-77
2021/01/16 02:23:08;;;;;;;27.38;13.60;;;-2.30;99.90;;;;;;4733986;30;20048;-77
2021/01/16 02:25:42;;;;;;;27.40;15.20;;;-2.30;99.90;;;;;;4734695;30;20135;-77
2021/01/16 02:28:20;;;;;;;26.88;14.30;;;-2.30;99.90;;;;;;4733626;30;20584;-78
2021/01/16 02:30:48;;;;;;;25.13;14.20;;;-2.30;99.90;;;;;;4733864;30;20051;-77
2021/01/16 02:33:22;;;;;;;26.73;13.85;;;-2.30;99.90;;;;;;4733656;30;20076;-77
2021/01/16 02:35:53;;;;;;;26.92;14.52;;;-2.40;99.90;;;;;;4734494;30;20052;-77
2021/01/16 02:38:43;;;;;;;26.40;14.48;;;-2.40;99.90;;;;;;4733370;30;20523;-78
2021/01/16 02:41:47;;;;;;;25.13;14.27;;;-2.40;99.90;;;;;;4748703;30;20048;-78
2021/01/16 02:44:33;;;;;;;20.50;11.07;;;-2.40;99.90;;;;;;4731562;30;20056;-77
2021/01/16 02:47:26;;;;;;;26.73;14.48;;;-2.40;99.90;;;;;;4733283;30;20524;-78
2021/01/16 02:50:08;;;;;;;24.50;14.85;;;-2.40;99.90;;;;;;4748208;30;20131;-78
2021/01/16 02:52:44;;;;;;;26.15;14.25;;;-2.40;99.90;;;;;;4733750;30;20091;-78
2021/01/16 02:55:21;;;;;;;31.20;14.73;;;-2.40;99.90;;;;;;4733527;30;20071;-79
2021/01/16 02:57:52;;;;;;;26.63;15.35;;;-2.40;99.90;;;;;;4733310;30;20059;-77
2021/01/16 03:00:21;;;;;;;27.98;16.25;;;-2.40;99.90;;;;;;4733384;30;20132;-77
2021/01/16 03:02:52;;;;;;;27.25;15.95;;;-2.40;99.90;;;;;;4734154;30;20252;-77
2021/01/16 03:05:24;;;;;;;29.15;16.25;;;-2.40;99.90;;;;;;4748103;30;20503;-77
2021/01/16 03:07:56;;;;;;;28.88;16.48;;;-2.40;99.90;;;;;;4733278;30;20155;-78
2021/01/16 03:10:24;;;;;;;27.88;16.88;;;-2.40;99.90;;;;;;4733439;30;20587;-78
2021/01/16 03:12:52;;;;;;;25.52;14.38;;;-2.40;99.90;;;;;;4748092;30;20076;-77
2021/01/16 03:15:19;;;;;;;25.33;14.48;;;-2.40;99.90;;;;;;4736188;30;20147;-78
2021/01/16 03:17:54;;;;;;;26.45;15.82;;;-2.40;99.90;;;;;;4735788;30;20653;-78
2021/01/16 03:20:28;;;;;;;28.67;15.88;;;-2.40;99.90;;;;;;4736855;30;20527;-77
2021/01/16 03:23:01;;;;;;;25.58;14.77;;;-2.40;99.90;;;;;;4736977;30;20047;-77
2021/01/16 03:25:32;;;;;;;29.60;15.20;;;-2.40;99.90;;;;;;4736786;30;20264;-78
2021/01/16 03:28:04;;;;;;;30.50;17.10;;;-2.40;99.90;;;;;;4736357;30;20143;-78
2021/01/16 03:30:35;;;;;;;27.75;15.13;;;-2.40;99.90;;;;;;4736754;30;20048;-77
2021/01/16 03:33:06;;;;;;;29.70;15.40;;;-2.50;99.90;;;;;;4736884;30;20517;-78
2021/01/16 03:35:38;;;;;;;29.35;16.80;;;-2.40;99.90;;;;;;4736978;30;20066;-77
2021/01/16 03:38:04;;;;;;;28.27;15.05;;;-2.40;99.90;;;;;;4735900;30;20055;-77
2021/01/16 03:40:35;;;;;;;29.20;15.07;;;-2.50;99.90;;;;;;4750449;30;20044;-77
2021/01/16 03:43:01;;;;;;;28.80;16.52;;;-2.50;99.90;;;;;;4736144;30;20143;-76
2021/01/16 03:45:33;;;;;;;28.02;15.52;;;-2.50;99.90;;;;;;4751645;30;20833;-78
2021/01/16 03:48:04;;;;;;;29.98;15.55;;;-2.50;99.90;;;;;;4751102;30;20050;-77
2021/01/16 03:50:36;;;;;;;30.63;16.30;;;-2.50;99.90;;;;;;4750701;30;20044;-78
2021/01/16 03:53:02;;;;;;;29.90;16.05;;;-2.50;99.90;;;;;;4736058;30;20052;-78
2021/01/16 03:55:28;;;;;;;30.10;15.82;;;-2.50;99.90;;;;;;4736017;30;20484;-78
2021/01/16 03:57:59;;;;;;;25.65;15.18;;;-2.50;99.90;;;;;;4736553;30;20051;-77
2021/01/16 04:00:26;;;;;;;27.42;15.20;;;-2.50;99.90;;;;;;4739422;30;20519;-78
2021/01/16 04:02:57;;;;;;;29.10;16.92;;;-2.50;99.90;;;;;;4753888;30;20071;-77
2021/01/16 04:05:23;;;;;;;27.38;14.45;;;-2.50;99.90;;;;;;4739431;30;20146;-78
2021/01/16 04:07:50;;;;;;;27.52;15.65;;;-2.50;99.90;;;;;;4753536;30;20143;-77
2021/01/16 04:10:21;;;;;;;29.05;17.08;;;-2.50;99.90;;;;;;4739964;30;20051;-78
2021/01/16 04:12:53;;;;;;;28.90;15.07;;;-2.50;99.90;;;;;;4739942;30;20151;-78
2021/01/16 04:15:24;;;;;;;27.25;13.40;;;-2.50;99.90;;;;;;4735930;30;20596;-77
2021/01/16 04:17:55;;;;;;;30.13;15.23;;;-2.40;99.90;;;;;;4735800;30;20142;-78
2021/01/16 04:20:27;;;;;;;28.10;15.45;;;-2.40;99.90;;;;;;4736180;30;20060;-78
2021/01/16 04:22:58;;;;;;;26.77;14.65;;;-2.40;99.90;;;;;;4751943;30;20054;-78
2021/01/16 04:25:24;;;;;;;29.15;14.82;;;-2.40;99.90;;;;;;4737842;30;20095;-78
2021/01/16 04:27:50;;;;;;;29.52;16.17;;;-2.40;99.90;;;;;;4737631;30;20528;-78
2021/01/16 04:30:22;;;;;;;32.35;16.45;;;-2.40;99.90;;;;;;4752422;30;20138;-78
2021/01/16 04:32:53;;;;;;;33.67;16.70;;;-2.50;99.90;;;;;;4723658;30;20138;-78
2021/01/16 04:35:20;;;;;;;30.83;16.30;;;-2.50;99.90;;;;;;4737632;30;20143;-79
2021/01/16 04:37:51;;;;;;;28.92;16.35;;;-2.50;99.90;;;;;;4738105;30;20094;-78
2021/01/16 04:40:17;;;;;;;27.83;15.70;;;-2.50;99.90;;;;;;4737754;30;20147;-79
2021/01/16 04:42:51;;;;;;;32.70;16.60;;;-2.50;99.90;;;;;;4723478;30;20055;-78
2021/01/16 04:45:23;;;;;;;28.75;15.95;;;-2.50;99.90;;;;;;4738036;30;20063;-78
2021/01/16 04:47:50;;;;;;;27.95;15.40;;;-2.50;99.90;;;;;;4751907;30;20052;-78
2021/01/16 04:50:18;;;;;;;27.55;15.63;;;-2.50;99.90;;;;;;4737277;30;20053;-78
2021/01/16 04:52:45;;;;;;;34.00;16.10;;;-2.60;99.90;;;;;;4737545;30;20512;-78
2021/01/16 04:55:14;;;;;;;30.13;16.75;;;-2.60;99.90;;;;;;4751890;30;20097;-79
2021/01/16 04:57:45;;;;;;;;;;;-2.60;99.90;;;;;;4737611;30;20607;-78
2021/01/16 05:00:17;;;;;;;28.88;15.18;;;-2.60;99.90;;;;;;4751307;30;19926;-78
2021/01/16 05:02:54;;;;;;;27.60;14.82;;;-2.60;99.90;;;;;;4737057;30;20177;-78
2021/01/16 05:05:20;;;;;;;31.95;17.48;;;-2.60;99.90;;;;;;4736596;30;20052;-78
2021/01/16 05:07:46;;;;;;;30.27;16.83;;;-2.60;99.90;;;;;;4750964;30;20044;-78
2021/01/16 05:10:22;;;;;;;31.23;16.77;;;-2.60;99.90;;;;;;4723322;30;20713;-78
2021/01/16 05:13:10;;;;;;;27.02;15.43;;;-2.70;99.90;;;;;;4751287;30;20060;-77
2021/01/16 05:15:43;;;;;;;32.38;16.45;;;-2.60;99.90;;;;;;4722539;30;20048;-77
2021/01/16 05:18:14;;;;;;;32.22;16.10;;;-2.60;99.90;;;;;;4750691;30;20123;-78
2021/01/16 05:20:49;;;;;;;30.85;17.33;;;-2.60;99.90;;;;;;4722093;30;20052;-77
2021/01/16 05:23:20;;;;;;;30.23;16.25;;;-2.60;99.90;;;;;;4736397;30;20044;-77
2021/01/16 05:25:52;;;;;;;34.28;17.10;;;-2.60;99.90;;;;;;4736258;30;20147;-77
2021/01/16 05:28:25;;;;;;;35.03;15.82;;;-2.60;99.90;;;;;;4736165;30;20052;-77
2021/01/16 05:31:02;;;;;;;25.00;12.95;;;-2.60;99.90;;;;;;4737182;30;20076;-77
2021/01/16 05:33:38;;;;;;;26.42;15.50;;;-2.60;99.90;;;;;;4736018;30;20052;-77
2021/01/16 05:36:09;;;;;;;29.33;14.95;;;-2.60;99.90;;;;;;4722430;30;20075;-77
2021/01/16 05:38:40;;;;;;;27.58;15.38;;;-2.60;99.90;;;;;;4735957;30;20078;-77
2021/01/16 05:41:13;;;;;;;30.95;17.70;;;-2.60;99.90;;;;;;4752187;30;20045;-77
2021/01/16 05:43:44;;;;;;;32.17;17.25;;;-2.60;99.90;;;;;;4736401;30;20048;-77
2021/01/16 05:46:16;;;;;;;30.67;16.77;;;-2.60;99.90;;;;;;4736889;30;20493;-77
2021/01/16 05:48:42;;;;;;;28.33;16.10;;;-2.60;99.90;;;;;;4735382;30;20515;-77
2021/01/16 05:51:15;;;;;;;35.83;17.35;;;-2.60;99.90;;;;;;4750395;30;20059;-78
2021/01/16 05:53:47;;;;;;;23.83;13.23;;;-2.60;99.90;;;;;;4750652;30;20491;-77
2021/01/16 05:56:16;;;;;;;30.42;16.75;;;-2.60;99.90;;;;;;4735662;30;20306;-79
2021/01/16 05:58:50;;;;;;;;;;;-2.60;99.90;;;;;;4735721;30;20048;-79
2021/01/16 06:01:22;;;;;;;28.70;14.52;;;-2.60;99.90;;;;;;4749789;30;19948;-77
2021/01/16 06:03:57;;;;;;;33.13;17.30;;;-2.60;99.90;;;;;;4742804;30;20047;-79
2021/01/16 06:06:23;;;;;;;29.50;15.27;;;-2.60;99.90;;;;;;4756460;30;20528;-77
2021/01/16 06:08:52;;;;;;;27.80;14.73;;;-2.60;99.90;;;;;;4770809;30;20054;-78
2021/01/16 06:11:23;;;;;;;30.85;16.50;;;-2.60;99.90;;;;;;4771754;30;20058;-77
2021/01/16 06:13:55;;;;;;;27.63;16.35;;;-2.60;99.90;;;;;;4756406;29;20074;-77
2021/01/16 06:16:38;;;;;;;112.43;47.30;;;-2.60;99.90;;;;;;4753899;30;20058;-77
2021/01/16 06:19:06;;;;;;;77.38;36.97;;;-2.60;99.90;;;;;;4752636;30;20146;-77
2021/01/16 06:21:42;;;;;;;48.58;27.30;;;-2.60;99.90;;;;;;4738209;30;20127;-77
2021/01/16 06:24:15;;;;;;;30.33;16.27;;;-2.60;99.90;;;;;;4753877;30;20606;-77
2021/01/16 06:26:43;;;;;;;33.67;16.73;;;-2.70;99.90;;;;;;4738141;30;20146;-77
2021/01/16 06:29:34;;;;;;;28.15;15.05;;;-2.70;99.90;;;;;;4738454;30;20044;-77
2021/01/16 06:32:09;;;;;;;32.00;16.25;;;-2.70;99.90;;;;;;4738097;30;20051;-77
2021/01/16 06:34:42;;;;;;;30.08;16.42;;;-2.70;99.90;;;;;;4768810;30;20059;-77
2021/01/16 06:37:13;;;;;;;30.10;15.25;;;-2.70;99.90;;;;;;4737534;30;20703;-77
2021/01/16 06:39:47;;;;;;;32.22;16.05;;;-2.80;99.90;;;;;;4737188;30;20081;-77
2021/01/16 06:42:21;;;;;;;29.00;15.40;;;-2.70;99.90;;;;;;4737257;30;20769;-77
2021/01/16 06:45:07;;;;;;;29.55;15.68;;;-2.70;99.90;;;;;;4744592;30;20448;-78
2021/01/16 06:47:36;;;;;;;27.25;14.05;;;-2.70;99.90;;;;;;4754761;30;20154;-78
2021/01/16 06:50:09;;;;;;;27.50;16.20;;;-2.70;99.90;;;;;;4755520;30;20049;-77
2021/01/16 06:52:37;;;;;;;27.58;14.73;;;-2.70;99.90;;;;;;4754702;30;20047;-77
2021/01/16 06:55:06;;;;;;;26.30;12.77;;;-2.70;99.90;;;;;;4769225;30;20146;-78
2021/01/16 06:57:37;;;;;;;;;;;-2.70;99.90;;;;;;4755418;30;20061;-78
2021/01/16 07:00:09;;;;;;;23.65;13.25;;;-2.70;99.90;;;;;;4770863;30;20019;-78
2021/01/16 07:02:45;;;;;;;27.25;13.88;;;-2.70;99.90;;;;;;4757863;30;20139;-78
2021/01/16 07:05:21;;;;;;;24.98;14.55;;;-2.70;99.90;;;;;;4771879;30;20488;-78
2021/01/16 07:07:53;;;;;;;27.67;14.10;;;-2.70;99.90;;;;;;4771786;30;20039;-78
2021/01/16 07:10:30;;;;;;;29.38;15.85;;;-2.70;99.90;;;;;;4771784;30;20150;-78
2021/01/16 07:13:05;;;;;;;28.33;15.80;;;-2.70;99.90;;;;;;4757552;30;20069;-78
2021/01/16 07:15:36;;;;;;;26.20;14.77;;;-2.80;99.90;;;;;;4757454;30;20055;-78
2021/01/16 07:18:08;;;;;;;28.30;15.13;;;-2.80;99.90;;;;;;4770758;30;20128;-77
2021/01/16 07:20:42;;;;;;;27.92;15.68;;;-2.80;99.90;;;;;;4773295;30;20065;-78
2021/01/16 07:23:09;;;;;;;32.50;16.55;;;-2.70;99.90;;;;;;4775217;30;20154;-78
2021/01/16 07:25:40;;;;;;;31.15;16.77;;;-2.70;99.90;;;;;;4761243;30;20043;-78
2021/01/16 07:28:12;;;;;;;28.48;15.45;;;-2.70;99.90;;;;;;4773864;30;20476;-78
2021/01/16 07:30:44;;;;;;;36.15;18.70;;;-2.70;99.90;;;;;;4739758;30;20048;-77
2021/01/16 07:33:16;;;;;;;35.67;17.98;;;-2.70;99.90;;;;;;4722003;30;20071;-78
2021/01/16 07:35:49;;;;;;;37.33;19.98;;;-2.70;99.90;;;;;;4722313;30;20052;-77
2021/01/16 07:38:17;;;;;;;31.42;17.63;;;-2.80;99.90;;;;;;4721899;30;20080;-77
2021/01/16 07:40:46;;;;;;;38.22;20.73;;;-2.80;99.90;;;;;;4721572;30;20495;-77
2021/01/16 07:43:16;;;;;;;32.53;18.88;;;-2.70;99.90;;;;;;4721814;30;20056;-78
2021/01/16 07:45:49;;;;;;;51.72;26.48;;;-2.70;99.90;;;;;;4737941;30;20083;-78
2021/01/16 07:48:30;;;;;;;59.33;30.88;;;-2.70;99.90;;;;;;4722595;30;20056;-77
2021/01/16 07:51:01;;;;;;;45.42;24.73;;;-2.70;99.90;;;;;;4722143;30;20048;-78
2021/01/16 07:53:43;;;;;;;39.40;20.25;;;-2.70;99.90;;;;;;4736850;30;20051;-78
2021/01/16 07:56:22;;;;;;;45.15;26.50;;;-2.70;99.90;;;;;;4721092;30;20058;-77
2021/01/16 07:59:13;;;;;;;35.50;20.08;;;-2.70;99.90;;;;;;4722383;30;20139;-78
2021/01/16 08:02:27;;;;;;;32.58;17.50;;;-2.60;99.90;;;;;;4736890;30;20075;-78
2021/01/16 08:08:05;;;;;;;33.03;17.58;;;-2.60;99.90;;;;;;5036782;24;20048;-78
2021/01/16 08:10:38;;;;;;;35.20;18.58;;;-2.60;99.90;;;;;;4735986;30;20048;-78
2021/01/16 08:13:11;;;;;;;35.22;18.60;;;-2.60;99.90;;;;;;4722686;30;20397;-78
2021/01/16 08:15:42;;;;;;;32.85;16.20;;;-2.60;99.90;;;;;;4735814;30;20080;-78
2021/01/16 08:18:19;;;;;;;32.42;18.00;;;-2.60;99.90;;;;;;4721710;30;20390;-77
2021/01/16 08:20:48;;;;;;;34.40;18.83;;;-2.60;99.90;;;;;;4735603;30;20071;-78
2021/01/16 08:23:25;;;;;;;41.80;19.40;;;-2.60;99.90;;;;;;4735797;30;20080;-79
2021/01/16 08:26:06;;;;;;;34.45;17.40;;;-2.70;99.90;;;;;;4721951;30;20056;-78
2021/01/16 08:28:38;;;;;;;35.25;18.80;;;-2.70;99.90;;;;;;4722432;30;20055;-78
2021/01/16 08:31:05;;;;;;;31.13;17.63;;;-2.60;99.90;;;;;;4735996;30;20147;-78
2021/01/16 08:42:53;;;;;;;39.53;20.63;;;-2.50;99.90;;;;;;5477199;24;21333;-78
2021/01/16 08:45:20;;;;;;;34.22;18.45;;;-2.40;99.90;;;;;;4769090;24;20071;-78
2021/01/16 08:47:57;;;;;;;33.10;17.48;;;-2.40;99.90;;;;;;4739696;30;20055;-79
2021/01/16 08:50:31;;;;;;;38.38;18.45;;;-2.40;99.90;;;;;;4753932;30;20112;-78
2021/01/16 08:53:20;;;;;;;36.55;19.55;;;-2.30;99.90;;;;;;4753924;30;20059;-79
2021/01/16 08:55:52;;;;;;;30.70;17.45;;;-2.30;99.90;;;;;;4754240;30;20056;-79
2021/01/16 08:58:18;;;;;;;42.17;20.40;;;-2.30;99.90;;;;;;4753885;30;20052;-79
2021/01/16 09:00:51;;;;;;;56.13;26.92;;;-2.30;99.90;;;;;;4739697;30;20064;-79
2021/01/16 09:03:25;;;;;;;37.75;22.40;;;-2.30;99.90;;;;;;4754202;30;20412;-79
2021/01/16 09:06:01;;;;;;;36.50;18.42;;;-2.30;99.90;;;;;;4794465;24;20112;-80
2021/01/16 09:08:33;;;;;;;36.35;19.38;;;-2.30;99.90;;;;;;4766502;30;20055;-79
2021/01/16 09:11:12;;;;;;;33.08;16.92;;;-2.30;99.90;;;;;;4774435;30;20051;-79
2021/01/16 09:25:31;;;;;;;39.50;21.60;;;-2.20;99.90;;;;;;5215903;24;20466;-78
2021/01/16 09:28:03;;;;;;;39.13;20.73;;;-2.20;99.90;;;;;;4742711;30;20409;-78
2021/01/16 09:30:35;;;;;;;42.72;21.60;;;-2.20;99.90;;;;;;4756406;30;20052;-78
2021/01/16 09:33:22;;;;;;;40.05;20.55;;;-2.20;99.90;;;;;;4756260;30;20058;-79
2021/01/16 09:42:19;;;;;;;41.80;21.38;;;-2.00;99.90;;;;;;4904279;24;20044;-78
2021/01/16 09:44:53;;;;;;;40.28;20.25;;;-2.00;99.90;;;;;;4789309;24;20076;-78
2021/01/16 09:47:27;;;;;;;38.40;20.65;;;-1.90;99.90;;;;;;4735126;30;20048;-79
2021/01/16 09:50:15;;;;;;;40.38;19.67;;;-1.90;99.90;;;;;;4721349;30;20049;-78
2021/01/16 09:52:56;;;;;;;38.38;20.52;;;-1.80;99.90;;;;;;4735205;30;20569;-78
2021/01/16 09:55:31;;;;;;;34.92;18.35;;;-1.70;99.90;;;;;;4763121;24;20414;-79
2021/01/16 09:57:59;;;;;;;36.88;18.45;;;-1.70;99.90;;;;;;4720747;30;20053;-78
2021/01/16 10:00:33;;;;;;;36.65;18.95;;;-1.70;99.90;;;;;;4720543;30;20045;-78
2021/01/16 10:03:13;;;;;;;34.40;18.90;;;-1.60;99.90;;;;;;4720396;30;20053;-78
2021/01/16 10:05:41;;;;;;;34.03;18.40;;;-1.60;99.90;;;;;;4830071;24;20451;-78
2021/01/16 10:08:28;;;;;;;35.03;17.63;;;-1.60;99.90;;;;;;4748195;30;20059;-78
2021/01/16 10:11:01;;;;;;;32.10;17.35;;;-1.50;99.90;;;;;;4789458;30;20048;-78
2021/01/16 10:16:33;;;;;;;34.95;17.85;;;-1.40;99.90;;;;;;4930665;24;20056;-78
2021/01/16 10:19:12;;;;;;;28.92;15.07;;;-1.30;99.90;;;;;;4753717;30;20142;-78
2021/01/16 10:21:57;;;;;;;;;;;-1.40;99.90;;;;;;4757947;30;20051;-77
2021/01/16 10:24:29;;;;;;;30.10;14.65;;;-1.40;99.90;;;;;;4772478;30;20392;-77
2021/01/16 10:27:01;;;;;;;29.73;16.33;;;-1.30;99.90;;;;;;4772226;30;20061;-78
2021/01/16 10:29:40;;;;;;;33.60;17.52;;;-1.40;99.90;;;;;;4772129;30;20058;-77
2021/01/16 10:32:22;;;;;;;30.13;15.90;;;-1.50;99.90;;;;;;4773260;30;20077;-77
2021/01/16 10:34:58;;;;;;;31.20;16.48;;;-1.50;99.90;;;;;;4772383;30;20462;-77
2021/01/16 10:37:40;;;;;;;26.60;14.30;;;-1.50;99.90;;;;;;4758182;30;20078;-78
2021/01/16 10:40:08;;;;;;;30.60;15.77;;;-1.60;99.90;;;;;;4772471;30;20120;-77
2021/01/16 10:42:43;;;;;;;27.15;14.80;;;-1.50;99.90;;;;;;4757666;30;20051;-76
2021/01/16 10:45:17;;;;;;;35.97;17.83;;;-1.40;99.90;;;;;;4768620;30;20127;-77
2021/01/16 10:47:50;;;;;;;31.15;16.17;;;-1.30;99.90;;;;;;4738002;30;20059;-77
2021/01/16 10:50:30;;;;;;;30.08;15.90;;;-1.30;99.90;;;;;;4722456;30;20056;-77
2021/01/16 10:53:06;;;;;;;30.85;15.68;;;-1.20;99.90;;;;;;4722089;30;20079;-78
2021/01/16 10:55:54;;;;;;;31.73;16.95;;;-1.20;99.90;;;;;;4722481;30;20087;-77
2021/01/16 10:58:32;;;;;;;28.15;16.17;;;-1.10;99.90;;;;;;4722581;30;20054;-77
2021/01/16 11:01:03;;;;;;;31.50;18.05;;;-1.20;99.90;;;;;;4737841;30;20397;-77
2021/01/16 11:03:35;;;;;;;28.13;16.80;;;-1.10;99.90;;;;;;4721525;30;20052;-78
2021/01/16 11:06:12;;;;;;;33.45;17.35;;;-1.20;99.90;;;;;;4734228;30;20416;-76
2021/01/16 11:08:39;;;;;;;32.08;17.02;;;-1.30;99.90;;;;;;4720996;30;20060;-77
2021/01/16 11:11:24;;;;;;;31.40;17.45;;;-1.20;99.90;;;;;;4751193;30;20494;-78
2021/01/16 11:13:55;;;;;;;30.17;15.52;;;-1.10;99.90;;;;;;4751725;30;20043;-76
2021/01/16 11:16:26;;;;;;;32.95;18.08;;;-1.20;99.90;;;;;;4751833;30;20048;-77
2021/01/16 11:19:07;;;;;;;24.05;13.55;;;-1.10;99.90;;;;;;4751305;30;20061;-76
2021/01/16 11:21:36;;;;;;;25.65;13.60;;;-1.10;99.90;;;;;;4749570;30;20135;-76
2021/01/16 11:24:15;;;;;;;26.73;14.35;;;-1.00;99.90;;;;;;4754921;30;20086;-76
2021/01/16 11:26:48;;;;;;;21.17;12.95;;;-1.00;99.90;;;;;;4771437;30;20458;-76
2021/01/16 11:29:20;;;;;;;24.63;13.63;;;-1.00;99.90;;;;;;4770563;30;20055;-76
2021/01/16 11:31:52;;;;;;;27.58;15.05;;;-0.90;99.90;;;;;;4783880;29;20051;-76
2021/01/16 11:34:27;;;;;;;26.98;15.15;;;-1.10;99.90;;;;;;4752108;30;20500;-76
2021/01/16 11:36:58;;;;;;;24.90;14.13;;;-1.00;99.90;;;;;;4741294;30;20050;-76
2021/01/16 11:39:48;;;;;;;24.60;13.32;;;-1.00;99.90;;;;;;4754761;30;20126;-77
2021/01/16 11:42:15;;;;;;;25.00;12.75;;;-0.90;99.90;;;;;;4741485;30;20048;-78
2021/01/16 11:44:57;;;;;;;23.35;12.70;;;-0.90;99.90;;;;;;4758355;30;20051;-77
2021/01/16 11:47:29;;;;;;;24.73;12.60;;;-0.90;99.90;;;;;;4744143;30;20048;-78
2021/01/16 11:49:57;;;;;;;28.02;14.18;;;-0.90;99.90;;;;;;4755576;30;20152;-78
2021/01/16 11:52:32;;;;;;;25.77;13.90;;;-0.90;99.90;;;;;;4773042;30;20062;-78
2021/01/16 11:55:11;;;;;;;25.15;12.57;;;-0.90;99.90;;;;;;4768850;30;20515;-76
2021/01/16 11:57:44;;;;;;;22.48;12.82;;;-0.90;99.90;;;;;;4756372;30;20048;-80
2021/01/16 12:00:18;;;;;;;26.50;13.82;;;-0.90;99.90;;;;;;4738489;30;20048;-76
2021/01/16 12:02:50;;;;;;;20.35;11.60;;;-0.90;99.90;;;;;;4735480;30;20048;-79
2021/01/16 12:05:23;;;;;;;21.63;12.57;;;-0.80;99.90;;;;;;4763731;30;20075;-76
2021/01/16 12:07:57;;;;;;;25.58;11.73;;;-0.90;99.90;;;;;;4735646;30;20578;-76
2021/01/16 12:10:26;;;;;;;23.05;10.98;;;-0.80;99.90;;;;;;4752025;30;20048;-78
2021/01/16 12:12:58;;;;;;;20.60;11.57;;;-0.70;99.90;;;;;;4753018;30;20063;-77
2021/01/16 12:15:31;;;;;;;21.15;11.60;;;-0.70;99.90;;;;;;4761478;30;20055;-77
2021/01/16 12:17:57;;;;;;;20.23;11.32;;;-0.60;99.90;;;;;;4754604;30;20180;-77
2021/01/16 12:20:29;;;;;;;21.40;11.00;;;-0.70;99.90;;;;;;4757929;30;20047;-78
2021/01/16 12:22:57;;;;;;;16.25;10.27;;;-0.70;99.90;;;;;;4758888;30;20054;-80
2021/01/16 12:25:30;;;;;;;;;;;-0.60;99.90;;;;;;4758542;30;20512;-77
2021/01/16 12:28:10;;;;;;;20.85;10.63;;;-0.40;99.90;;;;;;4773591;30;19952;-77
2021/01/16 12:30:38;;;;;;;21.92;11.00;;;-0.50;99.90;;;;;;4770228;30;20054;-76
2021/01/16 12:33:09;;;;;;;11.73;6.65;;;-0.40;99.90;;;;;;4756592;30;20051;-79
2021/01/16 12:35:41;;;;;;;22.58;11.23;;;-0.40;99.90;;;;;;4756544;30;20056;-77
2021/01/16 12:38:12;;;;;;;19.27;10.65;;;-0.30;99.90;;;;;;4754273;30;20060;-76
2021/01/16 12:40:44;;;;;;;18.85;9.93;;;-0.30;99.90;;;;;;4753834;30;20527;-78
2021/01/16 12:43:15;;;;;;;16.48;8.40;;;-0.30;99.90;;;;;;4742424;30;20048;-77
2021/01/16 12:45:47;;;;;;;23.30;12.18;;;-0.30;99.90;;;;;;4762646;30;20051;-77
2021/01/16 12:48:15;;;;;;;21.83;12.85;;;-0.30;99.90;;;;;;4779267;30;20047;-76
2021/01/16 12:50:46;;;;;;;22.80;9.55;;;-0.20;99.90;;;;;;4758337;30;20050;-76
2021/01/16 12:53:18;;;;;;;21.55;11.77;;;-0.10;99.70;;;;;;4748749;30;20519;-79
2021/01/16 12:55:44;;;;;;;19.55;10.23;;;-0.20;99.60;;;;;;4754079;30;20068;-77
2021/01/16 12:58:10;;;;;;;19.63;10.15;;;-0.20;99.90;;;;;;4756581;30;20084;-77
2021/01/16 13:00:42;;;;;;;21.05;10.25;;;-0.10;99.70;;;;;;4767761;30;20739;-78
2021/01/16 13:03:13;;;;;;;18.85;10.63;;;-0.10;99.70;;;;;;4746993;30;20512;-77
2021/01/16 13:05:44;;;;;;;21.15;10.65;;;-0.10;99.90;;;;;;4762452;30;20081;-78
2021/01/16 13:08:21;;;;;;;18.58;9.82;;;0.10;99.50;;;;;;4753438;30;20051;-76
2021/01/16 13:10:54;;;;;;;16.00;8.30;;;0.20;97.60;;;;;;4754764;30;20516;-76
2021/01/16 13:13:27;;;;;;;15.52;8.82;;;0.20;97.10;;;;;;4753774;30;20094;-76
2021/01/16 13:16:00;;;;;;;13.80;6.72;;;0.20;97.30;;;;;;4741691;30;20058;-78
2021/01/16 13:18:32;;;;;;;17.40;9.57;;;0.40;96.00;;;;;;4752949;30;20059;-78
2021/01/16 13:21:05;;;;;;;17.10;10.18;;;0.30;95.60;;;;;;4753902;30;20062;-76
2021/01/16 13:23:44;;;;;;;16.40;9.82;;;0.40;95.10;;;;;;4753225;30;20143;-78
2021/01/16 13:26:13;;;;;;;14.93;8.85;;;0.30;95.10;;;;;;4753105;30;20146;-77
2021/01/16 13:28:50;;;;;;;15.27;9.02;;;0.20;95.40;;;;;;4753053;30;20047;-76
2021/01/16 13:31:25;;;;;;;18.60;9.85;;;0.10;95.40;;;;;;4753692;30;20039;-76
2021/01/16 13:33:57;;;;;;;14.65;7.85;;;-0.10;95.20;;;;;;4769139;30;20086;-76